Portada
METAR-TAF:

METAR-TAF

Aeroports :

Aeroport de Palma - Son Sant Joan

Palma, Espanya

latitud: 39-33N, longitud: 002-44E, altitud: 4 m

Observació

L'informe es va fer fa 21 minuts, a les 21:00 UTC
Vent 4 kt del Est
Temperatura 9°C
Humitat 87%
Pressió 1024 hPa
Visibilitat 10 km o més
Escasses núvols a una alçada de 4500 ft

METAR: LEPA 272100Z 09004KT 9999 FEW045 09/07 Q1024 NOSIG

Hora: 22:21 (21:21 UTC)

Pronòstic

L'informe es va fer fa 4 hores i 21 minuts, a les 17:00 UTC
Pronòstic vàlid del 27 a les 18 UTC al 28 a les 18 UTC
Vent 5 kt amb direcció variable
Visibilitat 10 km o més
Cel ennuvolat a una alçada de 4500 ft
Probabilitat 40% :
Temporalment
l' 27 a les 20 UTC al 28 a les 08 UTC
Visibilitat: 3000 m
boirina

TAF: LEPA 271700Z 2718/2818 VRB05KT 9999 BKN045 TX18/2812Z TN06/2806Z PROB40 TEMPO 2720/2808 3000 BR

Observacions i pronòstics meteorològics de més de 4000 aeroports (METAR i TAF).

Les estacions disponibles són els punts grocs i vermells al mapa.

Posi el ratolí al punt desitjat per veure el nom de l'estació.

Feu clic per veure les observacions i els pronòstics meteorològics.

Per canviar el mapa: feu clic els botons verds amb una creu de color negre per apropar; al botó verd amb un guió per allunyar la imatge; o en les fletxes verdes per a mapes adjacents.


METAR-TAF: